createdAt,value
2019-05-14T00:02:24.158Z,99542.05
2019-05-14T00:35:35.840Z,99503.66
2019-05-14T00:38:08.085Z,99504.95
2019-05-14T00:44:06.129Z,99349.94
2019-05-14T00:47:14.325Z,99494.94
2019-05-14T00:50:04.092Z,99489.91
2019-05-14T00:52:57.724Z,99498.70
2019-05-14T00:55:47.109Z,99496.60
2019-05-14T00:58:36.710Z,99496.17
2019-05-14T01:02:03.812Z,99496.66
2019-05-14T01:04:53.220Z,99500.59
2019-05-14T01:07:58.607Z,99495.19
2019-05-14T01:10:37.812Z,99357.98
2019-05-14T01:13:27.118Z,99499.32
2019-05-14T01:16:16.702Z,99499.28
2019-05-14T01:19:07.319Z,99492.45
2019-05-14T01:21:56.692Z,99488.09
2019-05-14T01:24:46.378Z,99483.97
2019-05-14T01:27:35.712Z,99485.31
2019-05-14T01:30:55.783Z,99481.42
2019-05-14T01:33:27.293Z,99488.05
2019-05-14T01:36:09.152Z,99440.49
2019-05-14T01:38:51.424Z,99481.95
2019-05-14T01:41:32.090Z,99482.09
2019-05-14T01:44:04.380Z,99481.36
2019-05-14T01:46:54.143Z,99482.28
2019-05-14T01:49:37.141Z,99475.75
2019-05-14T01:52:17.444Z,99476.28
2019-05-14T01:55:07.131Z,99469.50
2019-05-14T01:57:56.739Z,99469.98
2019-05-14T02:00:27.411Z,99458.33
2019-05-14T02:03:16.730Z,99462.69
2019-05-14T02:05:49.227Z,99462.65
2019-05-14T02:08:38.654Z,99454.61
2019-05-14T02:14:58.299Z,99460.27
2019-05-14T02:17:47.694Z,99461.64
2019-05-14T02:20:37.312Z,99453.61
2019-05-14T02:23:26.639Z,99445.11
2019-05-14T02:26:16.314Z,99442.17
2019-05-14T02:32:14.327Z,99440.52
2019-05-14T02:35:03.796Z,99431.98
2019-05-14T02:38:13.693Z,99436.33
2019-05-14T02:41:03.173Z,99424.37
2019-05-14T02:43:59.170Z,99432.13
2019-05-14T02:47:09.816Z,99430.45
2019-05-14T02:49:51.535Z,99432.28
2019-05-14T02:55:19.120Z,99428.69
2019-05-14T02:58:00.137Z,99431.23
2019-05-14T03:00:41.671Z,99423.66
2019-05-14T03:03:23.771Z,99389.89
2019-05-14T03:08:52.296Z,99424.59
2019-05-14T03:11:34.529Z,99416.91
2019-05-14T03:14:19.316Z,99419.56
2019-05-14T03:16:59.824Z,99423.47
2019-05-14T03:19:41.198Z,99425.62
2019-05-14T03:22:46.779Z,99433.28
2019-05-14T03:28:39.835Z,99428.91
2019-05-14T03:31:33.055Z,99438.52
2019-05-14T03:34:43.339Z,99434.97
2019-05-14T03:37:31.633Z,99436.27
2019-05-14T03:40:21.223Z,99438.95
2019-05-14T03:43:11.604Z,99435.14
2019-05-14T03:46:02.119Z,99427.09
2019-05-14T03:48:43.385Z,99419.40
2019-05-14T03:51:24.985Z,99418.17
2019-05-14T03:54:11.340Z,99419.13
2019-05-14T03:56:50.323Z,99419.13
2019-05-14T03:59:32.166Z,99414.84
2019-05-14T04:02:13.933Z,99423.03
2019-05-14T04:04:53.958Z,99419.98
2019-05-14T04:08:02.223Z,99415.28
2019-05-14T04:11:11.940Z,99411.34
2019-05-14T04:14:32.012Z,99419.00
2019-05-14T04:17:42.446Z,99423.77
2019-05-14T04:20:53.305Z,99419.89
2019-05-14T04:24:03.654Z,99413.83
2019-05-14T04:27:13.742Z,99417.30
2019-05-14T04:30:09.406Z,99413.80
2019-05-14T04:35:48.991Z,99420.03
2019-05-14T04:38:40.943Z,99420.42
2019-05-14T04:41:32.290Z,99407.45
2019-05-14T04:44:22.443Z,99406.48
2019-05-14T04:47:30.154Z,99407.74
2019-05-14T04:49:58.963Z,99406.37
2019-05-14T04:52:40.613Z,99407.52
2019-05-14T04:55:34.508Z,99405.28
2019-05-14T04:58:24.380Z,99406.48
2019-05-14T05:04:10.649Z,99405.91
2019-05-14T05:07:21.667Z,99407.41
2019-05-14T05:10:30.838Z,99409.09
2019-05-14T05:13:20.491Z,99403.30
2019-05-14T05:16:10.490Z,99401.39
2019-05-14T05:19:25.408Z,99401.63
2019-05-14T05:22:19.609Z,99403.12
2019-05-14T05:24:50.119Z,99391.63
2019-05-14T05:27:39.681Z,99391.84
2019-05-14T05:30:31.946Z,99392.39
2019-05-14T05:33:23.896Z,99398.16
2019-05-14T05:35:54.325Z,99398.78
2019-05-14T05:38:24.838Z,99398.06
2019-05-14T05:41:14.564Z,99396.89
2019-05-14T05:43:44.960Z,99399.23
2019-05-14T05:46:15.295Z,99399.36
2019-05-14T05:49:08.103Z,99399.58
2019-05-14T05:51:39.237Z,99388.06
2019-05-14T05:54:29.917Z,99383.41
2019-05-14T05:57:19.251Z,99386.00
2019-05-14T05:59:52.960Z,99378.88
2019-05-14T06:02:23.399Z,99384.76
2019-05-14T06:04:54.180Z,99379.90
2019-05-14T06:07:36.329Z,99377.07
2019-05-14T06:12:58.560Z,99382.63
2019-05-14T06:15:43.822Z,99377.25
2019-05-14T06:18:22.102Z,99381.45
2019-05-14T06:20:58.343Z,99378.11
2019-05-14T06:23:28.849Z,99376.86
2019-05-14T06:26:19.101Z,99369.47
2019-05-14T06:29:09.014Z,99366.36
2019-05-14T06:31:39.473Z,99364.03
2019-05-14T06:34:31.124Z,99358.83
2019-05-14T06:37:20.728Z,99360.09
2019-05-14T06:40:09.967Z,99357.45
2019-05-14T06:42:40.324Z,99358.25
2019-05-14T06:45:22.234Z,99355.52
2019-05-14T06:47:43.913Z,99355.48
2019-05-14T06:50:14.394Z,99359.53
2019-05-14T06:53:03.717Z,99360.02
2019-05-14T06:55:53.055Z,99366.27
2019-05-14T06:58:29.550Z,99368.33
2019-05-14T07:00:59.300Z,99365.59
2019-05-14T07:03:51.291Z,99363.50
2019-05-14T07:06:21.601Z,99363.81
2019-05-14T07:08:52.822Z,99367.69
2019-05-14T07:11:23.241Z,99365.11
2019-05-14T07:13:58.110Z,99364.05
2019-05-14T07:16:28.897Z,99352.51
2019-05-14T07:18:59.392Z,99357.20
2019-05-14T07:21:32.771Z,99355.31
2019-05-14T07:24:03.092Z,99352.97
2019-05-14T07:26:38.843Z,99341.88
2019-05-14T07:29:29.317Z,99341.20
2019-05-14T07:32:00.263Z,99337.18
2019-05-14T07:34:49.558Z,99334.53
2019-05-14T07:37:22.013Z,99335.61
2019-05-14T07:39:52.661Z,99333.59
2019-05-14T07:42:28.719Z,99333.95
2019-05-14T07:44:58.929Z,99329.55
2019-05-14T07:47:49.360Z,99326.85
2019-05-14T07:50:20.617Z,99327.16
2019-05-14T07:52:51.257Z,99325.66
2019-05-14T07:55:21.563Z,99331.63
2019-05-14T07:58:11.215Z,99330.81
2019-05-14T08:01:00.562Z,99326.80
2019-05-14T08:03:50.186Z,99327.03
2019-05-14T08:06:39.591Z,99328.35
2019-05-14T08:09:29.265Z,99323.92
2019-05-14T08:11:59.553Z,99315.68
2019-05-14T08:14:46.402Z,99311.72
2019-05-14T08:20:29.839Z,99318.53
2019-05-14T08:23:19.154Z,99310.75
2019-05-14T08:26:09.133Z,99306.58
2019-05-14T08:28:58.696Z,99308.69
2019-05-14T08:31:29.374Z,99312.17
2019-05-14T08:34:04.896Z,99314.22
2019-05-14T08:36:54.425Z,99306.02
2019-05-14T08:39:43.738Z,99306.69
2019-05-14T08:42:34.318Z,99303.14
2019-05-14T08:45:24.435Z,99306.07
2019-05-14T08:48:14.062Z,99307.13
2019-05-14T08:50:47.969Z,99303.53
2019-05-14T08:53:18.725Z,99310.20
2019-05-14T08:56:12.324Z,99310.27
2019-05-14T08:58:42.809Z,99306.90
2019-05-14T09:01:13.076Z,99307.34
2019-05-14T09:04:05.211Z,99304.10
2019-05-14T09:06:48.905Z,99308.23
2019-05-14T09:09:48.612Z,99313.84
2019-05-14T09:12:18.784Z,99296.59
2019-05-14T09:18:04.591Z,99294.31
2019-05-14T09:20:38.325Z,99287.53
2019-05-14T09:23:28.916Z,99283.18
2019-05-14T09:25:59.296Z,99272.94
2019-05-14T09:28:29.755Z,99284.92
2019-05-14T09:31:24.308Z,99268.10
2019-05-14T09:37:03.159Z,99264.94
2019-05-14T09:39:51.447Z,99268.48
2019-05-14T09:42:33.160Z,99272.66
2019-05-14T09:45:14.613Z,99264.91
2019-05-14T09:48:01.183Z,99272.28
2019-05-14T09:50:38.649Z,99268.13
2019-05-14T09:53:20.177Z,99265.20
2019-05-14T09:56:03.732Z,99270.27
2019-05-14T09:58:53.105Z,99269.66
2019-05-14T10:01:42.505Z,99266.23
2019-05-14T10:04:27.081Z,99170.47
2019-05-14T10:07:04.448Z,99273.30
2019-05-14T10:12:54.137Z,99267.13
2019-05-14T10:15:40.240Z,99273.20
2019-05-14T10:18:29.667Z,99271.43
2019-05-14T10:21:19.282Z,99262.80
2019-05-14T10:24:23.919Z,99263.34
2019-05-14T10:27:00.122Z,99259.02
2019-05-14T10:29:49.484Z,99248.72
2019-05-14T10:35:03.499Z,99253.58
2019-05-14T10:37:54.415Z,99257.02
2019-05-14T10:43:33.470Z,99251.81
2019-05-14T10:46:40.149Z,99246.50
2019-05-14T10:49:23.467Z,99242.52
2019-05-14T10:52:08.519Z,99237.63
2019-05-14T10:54:53.855Z,99210.45
2019-05-14T10:57:14.021Z,99250.03
2019-05-14T10:59:44.356Z,99241.27
2019-05-14T11:02:14.997Z,99235.89
2019-05-14T11:04:45.443Z,99228.63
2019-05-14T11:07:53.653Z,99217.59
2019-05-14T11:10:44.418Z,99217.69
2019-05-14T11:13:43.158Z,99213.78
2019-05-14T11:16:24.859Z,99212.82
2019-05-14T11:19:09.349Z,99210.77
2019-05-14T11:21:51.920Z,99208.81
2019-05-14T11:24:33.242Z,99210.52
2019-05-14T11:27:18.633Z,99199.69
2019-05-14T11:30:09.042Z,99205.43
2019-05-14T11:32:39.690Z,99209.37
2019-05-14T11:35:31.115Z,99209.19
2019-05-14T11:38:29.857Z,99208.13
2019-05-14T11:41:11.532Z,99205.16
2019-05-14T11:44:04.572Z,99195.05
2019-05-14T11:46:58.105Z,99193.83
2019-05-14T11:49:26.470Z,99188.75
2019-05-14T11:52:07.298Z,99180.88
2019-05-14T11:54:30.253Z,99199.38
2019-05-14T11:57:00.576Z,99194.39
2019-05-14T11:59:30.904Z,99180.72
2019-05-14T12:02:01.275Z,99188.50
2019-05-14T12:04:53.777Z,99181.67
2019-05-14T12:07:27.938Z,99186.64
2019-05-14T12:10:18.802Z,99189.58
2019-05-14T12:12:55.389Z,99179.66
2019-05-14T12:15:28.066Z,99178.28
2019-05-14T12:18:18.620Z,99182.60
2019-05-14T12:20:52.199Z,99163.23
2019-05-14T12:23:41.880Z,99169.00
2019-05-14T12:26:13.634Z,99163.15
2019-05-14T12:29:05.870Z,99163.84
2019-05-14T12:32:18.915Z,99183.55
2019-05-14T12:34:53.190Z,99103.38
2019-05-14T12:37:51.057Z,99174.49
2019-05-14T12:40:29.825Z,99167.22
2019-05-14T12:43:00.267Z,99161.86
2019-05-14T12:45:49.632Z,99154.73
2019-05-14T12:48:33.145Z,99159.62
2019-05-14T12:50:53.268Z,99164.91
2019-05-14T12:53:24.224Z,99152.64
2019-05-14T12:55:56.062Z,99156.41
2019-05-14T12:58:28.560Z,99150.39
2019-05-14T13:01:20.412Z,99151.10
2019-05-14T13:04:31.148Z,99149.72
2019-05-14T13:07:01.488Z,99148.80
2019-05-14T13:09:43.922Z,99139.66
2019-05-14T13:12:53.690Z,99145.18
2019-05-14T13:19:14.688Z,99143.66
2019-05-14T13:22:38.394Z,99146.56
2019-05-14T13:25:14.266Z,99141.88
2019-05-14T13:27:44.570Z,99148.33
2019-05-14T13:30:15.306Z,99137.89
2019-05-14T13:32:59.100Z,99117.05
2019-05-14T13:38:25.992Z,99075.33
2019-05-14T13:41:11.727Z,99114.95
2019-05-14T13:43:58.524Z,99118.66
2019-05-14T13:49:22.842Z,99123.62
2019-05-14T13:51:53.373Z,99112.83
2019-05-14T13:54:42.736Z,99097.18
2019-05-14T13:57:13.106Z,99102.72
2019-05-14T13:59:44.723Z,99096.86
2019-05-14T14:02:18.994Z,99086.61
2019-05-14T14:05:13.431Z,99088.70
2019-05-14T14:11:02.791Z,99094.08
2019-05-14T14:13:49.962Z,99096.45
2019-05-14T14:16:20.441Z,99083.86
2019-05-14T14:19:12.195Z,99068.20
2019-05-14T14:22:06.326Z,99068.51
2019-05-14T14:31:34.321Z,99076.09
2019-05-14T14:34:29.113Z,99075.05
2019-05-14T14:36:59.681Z,99071.92
2019-05-14T14:39:49.590Z,99064.95
2019-05-14T14:42:40.182Z,99003.05
2019-05-14T14:45:46.272Z,99075.73
2019-05-14T14:48:05.783Z,99067.22
2019-05-14T14:50:49.985Z,99062.09
2019-05-14T14:54:09.881Z,99057.37
2019-05-14T14:56:54.414Z,99057.83
2019-05-14T14:59:30.532Z,99057.17
2019-05-14T15:02:50.000Z,99062.00
2019-05-14T15:05:43.746Z,99054.06
2019-05-14T15:08:29.047Z,99049.23
2019-05-14T15:11:05.107Z,99055.59
2019-05-14T15:13:35.451Z,99054.59
2019-05-14T15:22:49.459Z,99002.67
2019-05-14T15:26:11.938Z,99038.04
2019-05-14T15:29:02.071Z,99035.69
2019-05-14T15:31:33.440Z,99041.40
2019-05-14T15:34:22.812Z,99038.77
2019-05-14T15:37:13.732Z,99036.36
2019-05-14T15:40:04.643Z,99034.55
2019-05-14T15:42:55.301Z,99026.55
2019-05-14T15:45:25.989Z,99031.23
2019-05-14T15:48:02.943Z,99037.96
2019-05-14T15:51:01.340Z,99035.72
2019-05-14T15:53:34.961Z,99033.63
2019-05-14T15:56:24.259Z,99021.49
2019-05-14T15:59:01.064Z,99016.05
2019-05-14T16:01:32.116Z,99015.39
2019-05-14T16:04:23.248Z,99015.98
2019-05-14T16:06:53.979Z,99011.19
2019-05-14T16:13:20.852Z,99008.13
2019-05-14T16:16:20.018Z,99000.77
2019-05-14T16:19:09.351Z,99003.16
2019-05-14T16:21:59.034Z,98996.77
2019-05-14T16:24:29.519Z,99002.59
2019-05-14T16:27:19.756Z,98996.27
2019-05-14T16:30:10.411Z,98996.88
2019-05-14T16:33:05.183Z,98984.42
2019-05-14T16:35:39.234Z,98993.12
2019-05-14T16:38:48.325Z,98997.05
2019-05-14T16:41:38.918Z,98991.67
2019-05-14T16:44:30.831Z,98984.92
2019-05-14T16:47:20.142Z,98988.72
2019-05-14T16:49:51.678Z,98992.25
2019-05-14T16:52:23.682Z,98993.05
2019-05-14T16:55:14.996Z,99002.19
2019-05-14T16:57:29.353Z,98995.56
2019-05-14T17:00:34.668Z,98998.09
2019-05-14T17:03:00.235Z,98998.55
2019-05-14T17:05:51.954Z,98993.13
2019-05-14T17:08:49.797Z,98997.34
2019-05-14T17:11:25.284Z,99001.20
2019-05-14T17:13:58.029Z,99005.77
2019-05-14T17:16:30.182Z,98998.00
2019-05-14T17:19:20.075Z,98994.91
2019-05-14T17:22:24.003Z,98996.13
2019-05-14T17:24:43.289Z,99000.65
2019-05-14T17:27:19.668Z,98992.00
2019-05-14T17:30:09.289Z,98997.55
2019-05-14T17:32:39.721Z,98998.76
2019-05-14T17:35:11.624Z,98998.09
2019-05-14T17:37:41.994Z,98994.17
2019-05-14T17:40:12.340Z,98991.77
2019-05-14T17:43:02.143Z,98987.61
2019-05-14T17:45:58.757Z,98992.12
2019-05-14T17:48:39.131Z,98985.13
2019-05-14T17:51:31.449Z,98982.75
2019-05-14T17:54:23.045Z,98985.48
2019-05-14T17:57:15.287Z,98978.23
2019-05-14T17:59:49.763Z,98981.11
2019-05-14T18:02:23.222Z,98981.22
2019-05-14T18:04:59.284Z,98978.84
2019-05-14T18:07:30.469Z,98975.25
2019-05-14T18:10:23.073Z,98979.81
2019-05-14T18:13:12.614Z,98976.97
2019-05-14T18:16:09.007Z,98978.39
2019-05-14T18:19:18.176Z,98981.13
2019-05-14T18:21:51.973Z,98975.05
2019-05-14T18:24:59.174Z,98965.98
2019-05-14T18:30:41.728Z,98974.70
2019-05-14T18:33:12.349Z,98970.19
2019-05-14T18:36:04.017Z,98977.06
2019-05-14T18:38:53.307Z,98986.18
2019-05-14T18:41:42.944Z,98981.33
2019-05-14T18:44:32.320Z,98980.44
2019-05-14T18:47:41.174Z,98979.29
2019-05-14T18:50:44.616Z,98978.06
2019-05-14T18:53:21.893Z,98980.95
2019-05-14T18:56:20.308Z,98869.42
2019-05-14T18:58:45.596Z,98979.72
2019-05-14T19:01:35.111Z,98976.72
2019-05-14T19:04:08.099Z,98981.20
2019-05-14T19:09:18.430Z,98977.19
2019-05-14T19:11:48.368Z,98977.19
2019-05-14T19:14:19.186Z,98973.11
2019-05-14T19:16:52.986Z,98978.66
2019-05-14T19:19:42.607Z,98980.83
2019-05-14T19:22:32.104Z,98985.46
2019-05-14T19:25:21.985Z,98983.84
2019-05-14T19:27:52.379Z,98985.52
2019-05-14T19:30:45.131Z,98982.23
2019-05-14T19:33:20.625Z,98986.22
2019-05-14T19:35:54.374Z,98991.70
2019-05-14T19:38:25.216Z,99000.17
2019-05-14T19:40:57.298Z,98995.39
2019-05-14T19:44:08.820Z,98997.00
2019-05-14T19:47:02.854Z,99000.87
2019-05-14T19:49:52.419Z,98992.86
2019-05-14T19:52:22.861Z,99004.64
2019-05-14T19:55:13.889Z,99000.16
2019-05-14T19:58:03.464Z,99006.66
2019-05-14T20:00:38.234Z,99002.94
2019-05-14T20:06:21.478Z,99003.34
2019-05-14T20:09:25.085Z,99007.02
2019-05-14T20:14:39.005Z,99009.73
2019-05-14T20:17:29.786Z,99014.47
2019-05-14T20:20:00.539Z,99013.09
2019-05-14T20:22:59.138Z,99016.22
2019-05-14T20:25:41.650Z,99019.63
2019-05-14T20:28:15.040Z,99020.37
2019-05-14T20:31:04.390Z,99017.89
2019-05-14T20:33:53.908Z,99018.75
2019-05-14T20:36:48.221Z,99016.34
2019-05-14T20:39:40.094Z,98949.55
2019-05-14T20:42:14.792Z,99012.88
2019-05-14T20:44:56.605Z,99018.98
2019-05-14T20:47:39.002Z,98940.55
2019-05-14T20:50:30.451Z,99018.52
2019-05-14T20:53:00.854Z,99024.11
2019-05-14T20:55:31.540Z,99022.67
2019-05-14T20:58:20.995Z,99023.49
2019-05-14T21:01:11.420Z,99022.64
2019-05-14T21:04:02.101Z,99017.41
2019-05-14T21:06:53.290Z,99019.16
2019-05-14T21:10:03.196Z,99024.78
2019-05-14T21:12:53.155Z,99017.34
2019-05-14T21:15:48.170Z,99021.58
2019-05-14T21:18:33.264Z,99026.48
2019-05-14T21:21:11.764Z,99024.59
2019-05-14T21:23:42.242Z,98902.77
2019-05-14T21:26:19.417Z,99031.31
2019-05-14T21:29:09.187Z,99032.22
2019-05-14T21:31:39.700Z,99025.17
2019-05-14T21:34:32.099Z,99026.95
2019-05-14T21:37:04.390Z,99024.20
2019-05-14T21:39:40.958Z,99017.50
2019-05-14T21:42:28.629Z,99016.94
2019-05-14T21:46:10.247Z,99012.33
2019-05-14T21:48:45.019Z,99009.72
2019-05-14T21:51:03.204Z,99007.75
2019-05-14T21:53:38.701Z,99015.02
2019-05-14T21:56:40.097Z,99014.88
2019-05-14T21:59:29.795Z,99013.17
2019-05-14T22:02:27.035Z,99015.51
2019-05-14T22:05:11.090Z,99014.81
2019-05-14T22:07:41.604Z,99007.16
2019-05-14T22:10:39.851Z,99006.55
2019-05-14T22:13:31.484Z,99012.10
2019-05-14T22:16:05.026Z,99016.06
2019-05-14T22:18:55.484Z,99011.17
2019-05-14T22:21:28.910Z,99008.24
2019-05-14T22:24:07.906Z,99003.52
2019-05-14T22:26:38.945Z,99008.31
2019-05-14T22:29:29.828Z,98996.73
2019-05-14T22:32:11.333Z,98992.33
2019-05-14T22:34:53.019Z,99001.58
2019-05-14T22:37:23.845Z,99001.34
2019-05-14T22:39:54.400Z,98996.81
2019-05-14T22:42:44.124Z,98995.94
2019-05-14T22:45:33.580Z,98987.33
2019-05-14T22:48:04.070Z,98949.54
2019-05-14T22:50:41.020Z,98986.91
2019-05-14T22:53:09.427Z,98984.41
2019-05-14T22:55:41.085Z,98982.03
2019-05-14T22:58:50.065Z,98983.03
2019-05-14T23:01:20.419Z,98978.56
2019-05-14T23:03:50.803Z,98980.28
2019-05-14T23:06:21.373Z,98972.91
2019-05-14T23:08:53.691Z,98971.69
2019-05-14T23:11:24.462Z,98978.78
2019-05-14T23:14:13.758Z,98981.34
2019-05-14T23:16:44.008Z,98977.76
2019-05-14T23:19:35.836Z,98973.31
2019-05-14T23:22:25.072Z,98970.48
2019-05-14T23:25:14.653Z,98973.05
2019-05-14T23:28:22.761Z,98972.74
2019-05-14T23:30:56.154Z,98970.80
2019-05-14T23:33:28.714Z,98969.12
2019-05-14T23:35:58.694Z,98971.41
2019-05-14T23:41:30.173Z,98961.50
2019-05-14T23:44:00.778Z,98966.24
2019-05-14T23:46:31.049Z,98959.53
2019-05-14T23:51:51.950Z,98950.08
2019-05-14T23:54:22.208Z,98945.14
2019-05-14T23:57:11.533Z,98938.02
2019-05-14T23:59:41.836Z,98939.59
